Tipperary, Ireland
Current Conditions -  °F | °C
As of 4:30 AM on Friday 28 Nov 2014 (Local Time) from EINN Reporting Station
Broken Clouds Broken Clouds  
Wind Chill: 11°   Ceiling: 4000
Heat Index: 11°   Visibility: 6mi
Dew Point:   Wind: 10mph
Humidity: 82%   Direction: 60°ENE
Pressure: 29.38"   Gusts: NA
Location:  52.49°N, 8.17°W
Report Text: EINN 280430Z 06009KT 9999 SCT015 BKN040 11/08 Q0995 NOSIG
Loading
Personal Weather Stations






























Interactive Weather Map New forecast layout! Learn more

10-Day Weather Forecast

Advertisements
Track Severe Weather on mobile